Flight Track Log - Related Links

Times and Time Zones

All times are in EST time to prevent confusion due to time zone crossing. See the FLG4262 flight status page for this flight to view local times or setup timezone preferences in your user account.

Time Position Orientation Groundspeed Altitude Reporting Facility
EST Latitude Longitude Course Direction KTS MPH feet Rate Location/Type
Mon 05:28:15 PM 42.2481 -76.0819 287° West 165 190 5,800  Level New York Center
Mon 05:29:15 PM 42.2714 -76.1625 291° West 202 232 8,200 2,500 Climbing New York Center
Mon 05:30:15 PM 42.2986 -76.2544 292° West 241 277 10,800 2,550 Climbing New York Center
Mon 05:31:15 PM 42.3292 -76.3578 292° West 273 314 13,300 2,458 Climbing New York Center
Mon 05:32:39 PM 42.3672 -76.5006 290° West 292 336 16,700 2,137 Climbing Cleveland Center
Mon 05:33:41 PM 42.3961 -76.6042 291° West 296 341 18,500 1,597 Climbing Cleveland Center
Mon 05:34:43 PM 42.4256 -76.7139 290° West 310 357 20,000 1,452 Climbing Cleveland Center
Mon 05:35:45 PM 42.4622 -76.8481 290° West 315 362 21,500 1,355 Climbing Cleveland Center
Mon 05:36:47 PM 42.4914 -76.9592 290° West 315 362 22,800 1,296 Climbing Cleveland Center
Mon 05:37:50 PM 42.5214 -77.0722 290° West 318 366 24,200 1,296 Climbing Cleveland Center
Mon 05:38:52 PM 42.5517 -77.1844 290° West 316 364 25,500 1,210 Climbing Cleveland Center
Mon 05:39:54 PM 42.5811 -77.2947 290° West 314 361 26,700 1,065 Climbing Cleveland Center
Mon 05:40:56 PM 42.6167 -77.4303 290° West 319 367 27,700 629 Climbing Cleveland Center
Mon 05:41:58 PM 42.6447 -77.5356 290° West 322 371 28,000 145 Climbing Cleveland Center
Mon 05:43:00 PM 42.6572 -77.6589 278° West 328 377 28,000  Level Cleveland Center
Mon 05:44:02 PM 42.6625 -77.8142 273° West 362 417 28,000  Level Cleveland Center
Mon 05:45:04 PM 42.6664 -77.9450 272° West 350 403 28,000  Level Cleveland Center
Mon 05:46:06 PM 42.6697 -78.0794 272° West 354 407 28,000  Level Cleveland Center
Mon 05:47:08 PM 42.6733 -78.2144 272° West 359 413 28,000  Level Cleveland Center
Mon 05:48:10 PM 42.6778 -78.3508 273° West 361 415 28,000  Level Cleveland Center
Mon 05:49:12 PM 42.6800 -78.4867 271° West 362 417 28,000  Level Cleveland Center
Mon 05:50:15 PM 42.6833 -78.6511 272° West 364 419 28,000  Level Cleveland Center
Mon 05:51:17 PM 42.6858 -78.7881 271° West 364 419 28,000  Level Cleveland Center
Mon 05:52:19 PM 42.6878 -78.9242 271° West 362 417 28,000  Level Cleveland Center
Mon 05:53:21 PM 42.6903 -79.0619 271° West 364 419 28,000  Level Cleveland Center
Mon 05:54:23 PM 42.6931 -79.1983 272° West 364 419 28,000  Level Cleveland Center
Mon 05:55:25 PM 42.6950 -79.3342 271° West 363 418 28,000  Level Cleveland Center
Mon 05:56:27 PM 42.6972 -79.4986 271° West 365 420 28,000  Level Cleveland Center
Mon 05:57:29 PM 42.6989 -79.6364 271° West 364 419 28,000  Level Cleveland Center
Mon 05:58:31 PM 42.6997 -79.7742 271° West 365 420 28,000  Level Cleveland Center
Mon 05:59:33 PM 42.7011 -79.9122 271° West 366 421 28,000  Level Cleveland Center
Mon 06:00:35 PM 42.7014 -80.0728 270° West 371 427 28,000  Level Cleveland Center
Mon 06:01:37 PM 42.7031 -80.2122 271° West 367 422 28,000  Level Cleveland Center
Mon 06:02:39 PM 42.7028 -80.3514 270° West 366 421 28,000  Level Cleveland Center
Mon 06:03:41 PM 42.7053 -80.4925 271° West 371 427 28,000  Level Cleveland Center
Mon 06:04:43 PM 42.7044 -80.6314 270° West 367 422 28,000 -144 Level Cleveland Center
Mon 06:05:46 PM 42.7061 -80.7750 271° West 376 433 27,700 -576 Descending Cleveland Center
Mon 06:06:48 PM 42.7039 -80.9172 269° West 376 433 26,800 -919 Descending Cleveland Center
Mon 06:07:50 PM 42.6833 -81.0803 260° West 374 430 25,800 -968 Descending Cleveland Center
Mon 06:08:52 PM 42.6683 -81.2211 262° West 374 430 24,800 -871 Descending Cleveland Center
Mon 06:09:54 PM 42.6525 -81.3589 261° West 369 425 24,000 -484 Descending Cleveland Center
Mon 06:10:56 PM 42.6369 -81.4944 261° West 364 419 23,800 -871 Descending Cleveland Center
Mon 06:11:58 PM 42.6211 -81.6292 261° West 361 415 22,200 -1,500 Descending Cleveland Center
Mon 06:13:00 PM 42.6036 -81.7664 260° West 366 421 20,700 -1,500 Descending Cleveland Center
Mon 06:14:02 PM 42.5886 -81.9042 262° West 358 412 19,100 -1,548 Descending Cleveland Center
Mon 06:15:04 PM 42.5719 -82.0353 260° West 353 406 17,500 -1,392 Descending Cleveland Center
Mon 06:16:07 PM 42.5558 -82.1728 261° West 366 421 16,200 -1,597 Descending Cleveland Center
Mon 06:17:08 PM 42.5353 -82.3344 260° West 366 421 14,200 -2,032 Descending Cleveland Center
Mon 06:17:09 PM 42.5350 -82.3378 264° West 365 420 14,100 -1,636 Descending Cleveland Center
Mon 06:17:52 PM 42.5228 -82.4239 259° West 338 389 13,000 -1,574 Descending Cleveland Center
Mon 06:18:10 PM 42.5203 -82.4594 265° West 345 397 12,500 -1,000 Descending Cleveland Center
Mon 06:18:52 PM 42.5078 -82.5467 259° West 328 377 12,000 -484 Descending Cleveland Center
Mon 06:19:12 PM 42.4972 -82.5789 246° West 336 387 12,000 -393 Level Cleveland Center
Mon 06:19:53 PM 42.4664 -82.6600 243° Southwest 299 344 11,600 -677 Descending Cleveland Center
Mon 06:20:14 PM 42.4597 -82.6814 247° West 308 354 11,300 -1,475 Descending Cleveland Center
Mon 06:20:54 PM 42.4367 -82.7522 246° West 254 292 10,100 -1,452 Descending Cleveland Center
Mon 06:21:16 PM 42.4297 -82.7669 237° Southwest 267 307 9,800 -1,475 Descending Cleveland Center
Mon 06:21:55 PM 42.4283 -82.8358 268° West 226 260 8,600 -1,714 Descending Cleveland Center
Mon 06:22:19 PM 42.4361 -82.8658 289° West 231 266 8,000 -1,527 Descending Cleveland Center
Mon 06:22:50 PM 42.4464 -82.9061 289° West 214 246 7,200 -968 Descending Cleveland Center
Mon 06:23:21 PM 42.4547 -82.9400 288° West 212 244 7,000 -197 Descending Cleveland Center
Mon 06:23:51 PM 42.4661 -82.9794 291° West 205 236 7,000  Level Cleveland Center
Mon 06:24:23 PM 42.4742 -83.0125 288° West 208 239 7,000  Level Cleveland Center
Mon 06:24:52 PM 42.4853 -83.0586 288° West 218 251 7,000  Level Cleveland Center
Mon 06:25:25 PM 42.4925 -83.0903 287° West 214 246 7,000 -787 Level Cleveland Center
Mon 06:25:53 PM 42.4731 -83.1389 242° Southwest 229 264 6,200 -968 Descending Cleveland Center
Mon 06:26:27 PM 42.4569 -83.1581 221° Southwest 232 267 6,000 -590 Descending Cleveland Center
Mon 06:26:54 PM 42.4236 -83.1831 209° Southwest 210 242 5,600 -774 Descending Cleveland Center
Mon 06:27:29 PM 42.4053 -83.1972 210° Southwest 218 251 5,200 -1,164 Descending Cleveland Center
Mon 06:28:01 PM 42.3700 -83.2236 209° Southwest 186 214 4,300 -1,355 Descending Cleveland Center
Mon 06:28:31 PM 42.3492 -83.2392 209° Southwest 197 227 3,800 -1,082 Descending Cleveland Center
Mon 06:29:02 PM 42.3233 -83.2594 210° Southwest 196 226 3,200 -1,161 Descending Cleveland Center
Mon 06:29:33 PM 42.3019 -83.2731 205° Southwest 193 222 2,600 -1,082 Descending Cleveland Center
Mon 06:30:03 PM 42.2769 -83.2925 210° Southwest 170 196 2,100 -871 Descending Cleveland Center
Mon 06:30:35 PM 42.2611 -83.3044 209° Southwest 177 204 1,700 -885 Descending Cleveland Center
Mon 06:31:04 PM 42.2414 -83.3186 208° Southwest 146 168 1,200 -484 Descending Cleveland Center
Mon 06:31:37 PM 42.2297 -83.3264 206° Southwest 160 184 1,200  Level Cleveland Center
Mon 06:33:00 PM 42.2124 -83.3534 236° Southwest  Level Estimated
Mon 06:40:00 PM 42.2124 -83.3534 236° Southwest  Level Estimated

Login

Don't have an account? Register now (free) for customized features, flight alerts, and more!